sensor_id;sensor_type;location;lat;lon;timestamp;P1;durP1;ratioP1;P2;durP2;ratioP2
12469;SDS011;36499;46.484;13.832;2023-06-24T00:01:06;5.10;;;4.60;;
12469;SDS011;36499;46.484;13.832;2023-06-24T00:03:35;5.07;;;4.57;;
12469;SDS011;36499;46.484;13.832;2023-06-24T00:06:02;6.43;;;5.27;;
12469;SDS011;36499;46.484;13.832;2023-06-24T00:08:30;7.43;;;5.00;;
12469;SDS011;36499;46.484;13.832;2023-06-24T00:10:59;5.20;;;4.70;;
12469;SDS011;36499;46.484;13.832;2023-06-24T00:13:27;5.27;;;4.80;;
12469;SDS011;36499;46.484;13.832;2023-06-24T00:15:55;5.80;;;5.20;;
12469;SDS011;36499;46.484;13.832;2023-06-24T00:18:22;5.00;;;4.50;;
12469;SDS011;36499;46.484;13.832;2023-06-24T00:20:55;5.23;;;4.73;;
12469;SDS011;36499;46.484;13.832;2023-06-24T00:23:22;5.00;;;4.50;;
12469;SDS011;36499;46.484;13.832;2023-06-24T00:25:50;6.40;;;4.83;;
12469;SDS011;36499;46.484;13.832;2023-06-24T00:28:18;5.40;;;4.80;;
12469;SDS011;36499;46.484;13.832;2023-06-24T00:30:45;5.70;;;4.57;;
12469;SDS011;36499;46.484;13.832;2023-06-24T00:33:12;6.03;;;4.87;;
12469;SDS011;36499;46.484;13.832;2023-06-24T00:35:39;6.30;;;4.90;;
12469;SDS011;36499;46.484;13.832;2023-06-24T00:38:08;6.23;;;4.43;;
12469;SDS011;36499;46.484;13.832;2023-06-24T00:40:35;5.37;;;4.50;;
12469;SDS011;36499;46.484;13.832;2023-06-24T00:43:04;5.30;;;4.77;;
12469;SDS011;36499;46.484;13.832;2023-06-24T00:45:32;6.67;;;5.03;;
12469;SDS011;36499;46.484;13.832;2023-06-24T00:47:59;6.90;;;4.63;;
12469;SDS011;36499;46.484;13.832;2023-06-24T00:50:28;5.10;;;4.60;;
12469;SDS011;36499;46.484;13.832;2023-06-24T00:52:55;8.03;;;4.40;;
12469;SDS011;36499;46.484;13.832;2023-06-24T00:55:23;4.90;;;4.40;;
12469;SDS011;36499;46.484;13.832;2023-06-24T00:57:55;4.93;;;4.30;;
12469;SDS011;36499;46.484;13.832;2023-06-24T01:00:24;4.70;;;4.30;;
12469;SDS011;36499;46.484;13.832;2023-06-24T01:02:52;9.43;;;4.93;;
12469;SDS011;36499;46.484;13.832;2023-06-24T01:05:19;5.00;;;4.50;;
12469;SDS011;36499;46.484;13.832;2023-06-24T01:07:48;6.57;;;4.83;;
12469;SDS011;36499;46.484;13.832;2023-06-24T01:10:21;5.37;;;4.70;;
12469;SDS011;36499;46.484;13.832;2023-06-24T01:12:51;6.60;;;4.37;;
12469;SDS011;36499;46.484;13.832;2023-06-24T01:15:18;6.10;;;5.00;;
12469;SDS011;36499;46.484;13.832;2023-06-24T01:17:48;4.97;;;4.50;;
12469;SDS011;36499;46.484;13.832;2023-06-24T01:20:27;6.87;;;4.37;;
12469;SDS011;36499;46.484;13.832;2023-06-24T01:23:13;5.00;;;4.50;;
12469;SDS011;36499;46.484;13.832;2023-06-24T01:26:20;4.73;;;4.27;;
12469;SDS011;36499;46.484;13.832;2023-06-24T01:29:07;5.80;;;4.40;;
12469;SDS011;36499;46.484;13.832;2023-06-24T01:32:11;4.87;;;4.27;;
12469;SDS011;36499;46.484;13.832;2023-06-24T01:34:50;5.43;;;4.40;;
12469;SDS011;36499;46.484;13.832;2023-06-24T01:37:25;5.80;;;4.17;;
12469;SDS011;36499;46.484;13.832;2023-06-24T01:40:01;6.50;;;4.50;;
12469;SDS011;36499;46.484;13.832;2023-06-24T01:42:38;7.37;;;4.83;;
12469;SDS011;36499;46.484;13.832;2023-06-24T01:45:09;4.33;;;3.93;;
12469;SDS011;36499;46.484;13.832;2023-06-24T01:47:42;6.37;;;4.57;;
12469;SDS011;36499;46.484;13.832;2023-06-24T01:50:14;5.87;;;4.87;;
12469;SDS011;36499;46.484;13.832;2023-06-24T01:52:47;5.97;;;4.13;;
12469;SDS011;36499;46.484;13.832;2023-06-24T01:55:19;4.53;;;4.10;;
12469;SDS011;36499;46.484;13.832;2023-06-24T01:57:50;6.23;;;4.30;;
12469;SDS011;36499;46.484;13.832;2023-06-24T02:00:19;5.33;;;4.20;;
12469;SDS011;36499;46.484;13.832;2023-06-24T02:02:51;4.50;;;4.10;;
12469;SDS011;36499;46.484;13.832;2023-06-24T02:05:21;4.83;;;4.33;;
12469;SDS011;36499;46.484;13.832;2023-06-24T02:07:51;5.37;;;4.07;;
12469;SDS011;36499;46.484;13.832;2023-06-24T02:10:20;6.17;;;4.27;;
12469;SDS011;36499;46.484;13.832;2023-06-24T02:12:49;8.20;;;4.60;;
12469;SDS011;36499;46.484;13.832;2023-06-24T02:15:20;6.47;;;4.17;;
12469;SDS011;36499;46.484;13.832;2023-06-24T02:17:49;7.20;;;4.47;;
12469;SDS011;36499;46.484;13.832;2023-06-24T02:20:21;4.80;;;4.40;;
12469;SDS011;36499;46.484;13.832;2023-06-24T02:22:52;5.23;;;4.30;;
12469;SDS011;36499;46.484;13.832;2023-06-24T02:25:21;5.57;;;4.63;;
12469;SDS011;36499;46.484;13.832;2023-06-24T02:27:49;4.10;;;3.70;;
12469;SDS011;36499;46.484;13.832;2023-06-24T02:30:18;7.93;;;4.43;;
12469;SDS011;36499;46.484;13.832;2023-06-24T02:32:47;5.00;;;4.30;;
12469;SDS011;36499;46.484;13.832;2023-06-24T02:35:16;9.07;;;4.30;;
12469;SDS011;36499;46.484;13.832;2023-06-24T02:37:43;4.30;;;3.90;;
12469;SDS011;36499;46.484;13.832;2023-06-24T02:40:10;4.33;;;3.93;;
12469;SDS011;36499;46.484;13.832;2023-06-24T02:42:38;5.60;;;3.97;;
12469;SDS011;36499;46.484;13.832;2023-06-24T02:45:06;4.20;;;3.80;;
12469;SDS011;36499;46.484;13.832;2023-06-24T02:47:34;3.80;;;3.50;;
12469;SDS011;36499;46.484;13.832;2023-06-24T02:50:03;6.27;;;3.90;;
12469;SDS011;36499;46.484;13.832;2023-06-24T02:52:36;4.40;;;3.57;;
12469;SDS011;36499;46.484;13.832;2023-06-24T02:55:04;3.80;;;3.50;;
12469;SDS011;36499;46.484;13.832;2023-06-24T02:57:34;7.70;;;3.97;;
12469;SDS011;36499;46.484;13.832;2023-06-24T03:00:02;5.30;;;3.60;;
12469;SDS011;36499;46.484;13.832;2023-06-24T03:02:33;7.20;;;4.00;;
12469;SDS011;36499;46.484;13.832;2023-06-24T03:05:02;6.47;;;3.63;;
12469;SDS011;36499;46.484;13.832;2023-06-24T03:07:30;6.53;;;3.90;;
12469;SDS011;36499;46.484;13.832;2023-06-24T03:10:01;5.13;;;4.20;;
12469;SDS011;36499;46.484;13.832;2023-06-24T03:12:30;12.37;;;4.23;;
12469;SDS011;36499;46.484;13.832;2023-06-24T03:14:57;4.40;;;4.00;;
12469;SDS011;36499;46.484;13.832;2023-06-24T03:17:24;4.53;;;4.00;;
12469;SDS011;36499;46.484;13.832;2023-06-24T03:19:52;4.50;;;3.70;;
12469;SDS011;36499;46.484;13.832;2023-06-24T03:22:19;4.67;;;3.80;;
12469;SDS011;36499;46.484;13.832;2023-06-24T03:24:47;4.60;;;3.40;;
12469;SDS011;36499;46.484;13.832;2023-06-24T03:27:18;3.70;;;3.10;;
12469;SDS011;36499;46.484;13.832;2023-06-24T03:29:45;3.90;;;3.60;;
12469;SDS011;36499;46.484;13.832;2023-06-24T03:32:12;4.97;;;3.70;;
12469;SDS011;36499;46.484;13.832;2023-06-24T03:34:39;4.30;;;3.50;;
12469;SDS011;36499;46.484;13.832;2023-06-24T03:37:06;5.20;;;3.40;;
12469;SDS011;36499;46.484;13.832;2023-06-24T03:39:33;3.50;;;3.20;;
12469;SDS011;36499;46.484;13.832;2023-06-24T03:42:02;3.70;;;3.20;;
12469;SDS011;36499;46.484;13.832;2023-06-24T03:44:31;4.97;;;3.23;;
12469;SDS011;36499;46.484;13.832;2023-06-24T03:46:58;3.40;;;3.10;;
12469;SDS011;36499;46.484;13.832;2023-06-24T03:49:25;4.70;;;3.20;;
12469;SDS011;36499;46.484;13.832;2023-06-24T03:51:52;3.30;;;3.00;;
12469;SDS011;36499;46.484;13.832;2023-06-24T03:54:19;4.07;;;3.23;;
12469;SDS011;36499;46.484;13.832;2023-06-24T03:56:46;3.20;;;2.90;;
12469;SDS011;36499;46.484;13.832;2023-06-24T03:59:13;7.30;;;3.50;;
12469;SDS011;36499;46.484;13.832;2023-06-24T04:01:42;4.40;;;3.40;;
12469;SDS011;36499;46.484;13.832;2023-06-24T04:04:09;4.07;;;2.80;;
12469;SDS011;36499;46.484;13.832;2023-06-24T04:06:36;3.23;;;2.57;;
12469;SDS011;36499;46.484;13.832;2023-06-24T04:09:03;4.23;;;3.00;;
12469;SDS011;36499;46.484;13.832;2023-06-24T04:11:31;3.30;;;3.00;;
12469;SDS011;36499;46.484;13.832;2023-06-24T04:13:58;3.50;;;3.00;;
12469;SDS011;36499;46.484;13.832;2023-06-24T04:16:25;3.53;;;2.80;;
12469;SDS011;36499;46.484;13.832;2023-06-24T04:18:54;3.70;;;3.30;;
12469;SDS011;36499;46.484;13.832;2023-06-24T04:21:21;5.70;;;3.00;;
12469;SDS011;36499;46.484;13.832;2023-06-24T04:23:48;3.33;;;2.63;;
12469;SDS011;36499;46.484;13.832;2023-06-24T04:26:15;3.33;;;2.53;;
12469;SDS011;36499;46.484;13.832;2023-06-24T04:28:42;3.40;;;3.10;;
12469;SDS011;36499;46.484;13.832;2023-06-24T04:31:09;3.27;;;2.83;;
12469;SDS011;36499;46.484;13.832;2023-06-24T04:33:36;3.17;;;2.83;;
12469;SDS011;36499;46.484;13.832;2023-06-24T04:36:05;4.03;;;2.80;;
12469;SDS011;36499;46.484;13.832;2023-06-24T04:38:32;3.87;;;2.87;;
12469;SDS011;36499;46.484;13.832;2023-06-24T04:40:59;5.67;;;2.57;;
12469;SDS011;36499;46.484;13.832;2023-06-24T04:43:26;3.23;;;2.77;;
12469;SDS011;36499;46.484;13.832;2023-06-24T04:45:54;3.00;;;2.70;;
12469;SDS011;36499;46.484;13.832;2023-06-24T04:48:22;3.00;;;2.70;;
12469;SDS011;36499;46.484;13.832;2023-06-24T04:50:49;4.20;;;2.40;;
12469;SDS011;36499;46.484;13.832;2023-06-24T04:53:19;3.87;;;2.37;;
12469;SDS011;36499;46.484;13.832;2023-06-24T04:55:47;3.00;;;2.70;;
12469;SDS011;36499;46.484;13.832;2023-06-24T04:58:14;2.33;;;2.13;;
12469;SDS011;36499;46.484;13.832;2023-06-24T05:00:41;5.10;;;2.60;;
12469;SDS011;36499;46.484;13.832;2023-06-24T05:03:09;5.90;;;2.93;;
12469;SDS011;36499;46.484;13.832;2023-06-24T05:05:36;3.93;;;2.57;;
12469;SDS011;36499;46.484;13.832;2023-06-24T05:08:15;5.70;;;2.50;;
12469;SDS011;36499;46.484;13.832;2023-06-24T05:10:43;3.20;;;2.60;;
12469;SDS011;36499;46.484;13.832;2023-06-24T05:13:10;2.67;;;2.47;;
12469;SDS011;36499;46.484;13.832;2023-06-24T05:15:37;2.87;;;2.27;;
12469;SDS011;36499;46.484;13.832;2023-06-24T05:18:05;6.30;;;2.50;;
12469;SDS011;36499;46.484;13.832;2023-06-24T05:20:32;4.30;;;2.53;;
12469;SDS011;36499;46.484;13.832;2023-06-24T05:22:59;5.57;;;2.73;;
12469;SDS011;36499;46.484;13.832;2023-06-24T05:25:26;2.60;;;2.40;;
12469;SDS011;36499;46.484;13.832;2023-06-24T05:27:54;2.73;;;2.40;;
12469;SDS011;36499;46.484;13.832;2023-06-24T05:30:21;2.37;;;2.17;;
12469;SDS011;36499;46.484;13.832;2023-06-24T05:32:48;3.27;;;2.23;;
12469;SDS011;36499;46.484;13.832;2023-06-24T05:35:15;3.53;;;2.37;;
12469;SDS011;36499;46.484;13.832;2023-06-24T05:37:42;3.60;;;2.00;;
12469;SDS011;36499;46.484;13.832;2023-06-24T05:40:10;7.37;;;2.10;;
12469;SDS011;36499;46.484;13.832;2023-06-24T05:42:38;2.97;;;2.20;;
12469;SDS011;36499;46.484;13.832;2023-06-24T05:45:07;4.57;;;2.60;;
12469;SDS011;36499;46.484;13.832;2023-06-24T05:47:35;3.40;;;2.10;;
12469;SDS011;36499;46.484;13.832;2023-06-24T05:50:03;2.23;;;1.80;;
12469;SDS011;36499;46.484;13.832;2023-06-24T05:52:32;3.73;;;2.30;;
12469;SDS011;36499;46.484;13.832;2023-06-24T05:54:59;1.87;;;1.77;;
12469;SDS011;36499;46.484;13.832;2023-06-24T05:57:26;1.87;;;1.77;;
12469;SDS011;36499;46.484;13.832;2023-06-24T05:59:53;1.70;;;1.60;;
12469;SDS011;36499;46.484;13.832;2023-06-24T06:02:21;3.20;;;2.17;;
12469;SDS011;36499;46.484;13.832;2023-06-24T06:04:49;2.30;;;1.80;;
12469;SDS011;36499;46.484;13.832;2023-06-24T06:07:16;3.97;;;2.00;;
12469;SDS011;36499;46.484;13.832;2023-06-24T06:09:43;2.10;;;1.90;;
12469;SDS011;36499;46.484;13.832;2023-06-24T06:12:10;2.30;;;2.10;;
12469;SDS011;36499;46.484;13.832;2023-06-24T06:14:38;1.90;;;1.70;;
12469;SDS011;36499;46.484;13.832;2023-06-24T06:17:05;2.23;;;1.90;;
12469;SDS011;36499;46.484;13.832;2023-06-24T06:19:33;3.33;;;1.87;;
12469;SDS011;36499;46.484;13.832;2023-06-24T06:22:00;2.27;;;2.07;;
12469;SDS011;36499;46.484;13.832;2023-06-24T06:24:27;3.03;;;1.97;;
12469;SDS011;36499;46.484;13.832;2023-06-24T06:26:54;2.20;;;2.00;;
12469;SDS011;36499;46.484;13.832;2023-06-24T06:29:24;2.30;;;2.10;;
12469;SDS011;36499;46.484;13.832;2023-06-24T06:31:51;2.13;;;1.87;;
12469;SDS011;36499;46.484;13.832;2023-06-24T06:34:20;2.00;;;1.80;;
12469;SDS011;36499;46.484;13.832;2023-06-24T06:36:48;2.30;;;2.10;;
12469;SDS011;36499;46.484;13.832;2023-06-24T06:39:15;3.00;;;1.80;;
12469;SDS011;36499;46.484;13.832;2023-06-24T06:41:42;2.00;;;1.80;;
12469;SDS011;36499;46.484;13.832;2023-06-24T06:44:09;2.63;;;1.60;;
12469;SDS011;36499;46.484;13.832;2023-06-24T06:46:36;1.83;;;1.73;;
12469;SDS011;36499;46.484;13.832;2023-06-24T06:49:03;2.20;;;2.00;;
12469;SDS011;36499;46.484;13.832;2023-06-24T06:51:30;3.40;;;2.00;;
12469;SDS011;36499;46.484;13.832;2023-06-24T06:54:00;2.27;;;2.07;;
12469;SDS011;36499;46.484;13.832;2023-06-24T06:56:28;2.63;;;2.17;;
12469;SDS011;36499;46.484;13.832;2023-06-24T06:58:55;2.00;;;1.80;;
12469;SDS011;36499;46.484;13.832;2023-06-24T07:01:22;3.00;;;1.80;;
12469;SDS011;36499;46.484;13.832;2023-06-24T07:03:49;3.13;;;2.00;;
12469;SDS011;36499;46.484;13.832;2023-06-24T07:06:17;1.90;;;1.80;;
12469;SDS011;36499;46.484;13.832;2023-06-24T07:08:45;7.30;;;1.97;;
12469;SDS011;36499;46.484;13.832;2023-06-24T07:11:14;2.47;;;2.13;;
12469;SDS011;36499;46.484;13.832;2023-06-24T07:13:41;3.00;;;2.03;;
12469;SDS011;36499;46.484;13.832;2023-06-24T07:16:09;1.87;;;1.77;;
12469;SDS011;36499;46.484;13.832;2023-06-24T07:18:36;2.20;;;1.90;;
12469;SDS011;36499;46.484;13.832;2023-06-24T07:21:03;3.60;;;1.97;;
12469;SDS011;36499;46.484;13.832;2023-06-24T07:23:30;2.53;;;1.67;;
12469;SDS011;36499;46.484;13.832;2023-06-24T07:25:57;2.20;;;2.00;;
12469;SDS011;36499;46.484;13.832;2023-06-24T07:28:26;1.77;;;1.67;;
12469;SDS011;36499;46.484;13.832;2023-06-24T07:30:53;2.10;;;1.83;;
12469;SDS011;36499;46.484;13.832;2023-06-24T07:33:20;3.33;;;1.87;;
12469;SDS011;36499;46.484;13.832;2023-06-24T07:35:47;2.07;;;1.80;;
12469;SDS011;36499;46.484;13.832;2023-06-24T07:38:14;2.40;;;2.00;;
12469;SDS011;36499;46.484;13.832;2023-06-24T07:40:41;3.27;;;1.60;;
12469;SDS011;36499;46.484;13.832;2023-06-24T07:43:08;2.50;;;1.70;;
12469;SDS011;36499;46.484;13.832;2023-06-24T07:45:36;2.83;;;1.70;;
12469;SDS011;36499;46.484;13.832;2023-06-24T07:48:04;3.37;;;1.50;;
12469;SDS011;36499;46.484;13.832;2023-06-24T07:50:32;2.10;;;1.90;;
12469;SDS011;36499;46.484;13.832;2023-06-24T07:52:59;2.00;;;1.80;;
12469;SDS011;36499;46.484;13.832;2023-06-24T07:55:27;1.77;;;1.67;;
12469;SDS011;36499;46.484;13.832;2023-06-24T07:57:54;2.53;;;1.60;;
12469;SDS011;36499;46.484;13.832;2023-06-24T08:00:23;2.10;;;1.80;;
12469;SDS011;36499;46.484;13.832;2023-06-24T08:02:52;1.80;;;1.70;;
12469;SDS011;36499;46.484;13.832;2023-06-24T08:05:20;1.93;;;1.60;;
12469;SDS011;36499;46.484;13.832;2023-06-24T08:07:47;1.70;;;1.60;;
12469;SDS011;36499;46.484;13.832;2023-06-24T08:10:14;1.87;;;1.60;;
12469;SDS011;36499;46.484;13.832;2023-06-24T08:12:41;2.20;;;1.53;;
12469;SDS011;36499;46.484;13.832;2023-06-24T08:15:08;1.53;;;1.33;;
12469;SDS011;36499;46.484;13.832;2023-06-24T08:17:36;1.43;;;1.27;;
12469;SDS011;36499;46.484;13.832;2023-06-24T08:20:05;2.13;;;1.50;;
12469;SDS011;36499;46.484;13.832;2023-06-24T08:22:33;1.27;;;1.10;;
12469;SDS011;36499;46.484;13.832;2023-06-24T08:25:00;0.80;;;0.80;;
12469;SDS011;36499;46.484;13.832;2023-06-24T08:27:27;1.67;;;1.03;;
12469;SDS011;36499;46.484;13.832;2023-06-24T08:29:54;1.03;;;0.97;;
12469;SDS011;36499;46.484;13.832;2023-06-24T08:32:21;1.10;;;0.97;;
12469;SDS011;36499;46.484;13.832;2023-06-24T08:34:48;2.23;;;1.00;;
12469;SDS011;36499;46.484;13.832;2023-06-24T08:37:17;0.90;;;0.90;;
12469;SDS011;36499;46.484;13.832;2023-06-24T08:39:44;0.87;;;0.87;;
12469;SDS011;36499;46.484;13.832;2023-06-24T08:42:12;0.80;;;0.80;;
12469;SDS011;36499;46.484;13.832;2023-06-24T08:44:39;0.93;;;0.90;;
12469;SDS011;36499;46.484;13.832;2023-06-24T08:47:06;0.80;;;0.80;;
12469;SDS011;36499;46.484;13.832;2023-06-24T08:49:34;1.20;;;1.10;;
12469;SDS011;36499;46.484;13.832;2023-06-24T08:52:11;0.90;;;0.90;;
12469;SDS011;36499;46.484;13.832;2023-06-24T08:54:45;1.20;;;1.00;;
12469;SDS011;36499;46.484;13.832;2023-06-24T08:57:16;1.13;;;1.03;;
12469;SDS011;36499;46.484;13.832;2023-06-24T08:59:44;1.10;;;1.00;;
12469;SDS011;36499;46.484;13.832;2023-06-24T09:02:12;1.07;;;1.00;;
12469;SDS011;36499;46.484;13.832;2023-06-24T09:04:40;1.10;;;1.00;;
12469;SDS011;36499;46.484;13.832;2023-06-24T09:07:07;0.90;;;0.90;;
12469;SDS011;36499;46.484;13.832;2023-06-24T09:09:41;0.90;;;0.90;;
12469;SDS011;36499;46.484;13.832;2023-06-24T09:12:11;2.60;;;1.07;;
12469;SDS011;36499;46.484;13.832;2023-06-24T09:14:40;1.20;;;1.00;;
12469;SDS011;36499;46.484;13.832;2023-06-24T09:17:08;1.07;;;1.00;;
12469;SDS011;36499;46.484;13.832;2023-06-24T09:19:35;2.37;;;1.23;;
12469;SDS011;36499;46.484;13.832;2023-06-24T09:22:03;1.07;;;0.90;;
12469;SDS011;36499;46.484;13.832;2023-06-24T09:24:32;0.90;;;0.90;;
12469;SDS011;36499;46.484;13.832;2023-06-24T09:27:01;0.83;;;0.83;;
12469;SDS011;36499;46.484;13.832;2023-06-24T09:29:31;1.10;;;1.10;;
12469;SDS011;36499;46.484;13.832;2023-06-24T09:32:03;1.23;;;1.13;;
12469;SDS011;36499;46.484;13.832;2023-06-24T09:34:31;0.80;;;0.80;;
12469;SDS011;36499;46.484;13.832;2023-06-24T09:36:59;1.00;;;0.90;;
12469;SDS011;36499;46.484;13.832;2023-06-24T09:39:39;1.43;;;0.90;;
12469;SDS011;36499;46.484;13.832;2023-06-24T09:42:07;0.93;;;0.93;;
12469;SDS011;36499;46.484;13.832;2023-06-24T09:44:35;1.20;;;1.10;;
12469;SDS011;36499;46.484;13.832;2023-06-24T09:47:02;1.50;;;1.20;;
12469;SDS011;36499;46.484;13.832;2023-06-24T09:49:30;1.50;;;1.20;;
12469;SDS011;36499;46.484;13.832;2023-06-24T09:51:58;1.10;;;1.00;;
12469;SDS011;36499;46.484;13.832;2023-06-24T09:54:27;1.20;;;1.10;;
12469;SDS011;36499;46.484;13.832;2023-06-24T09:56:57;0.80;;;0.80;;
12469;SDS011;36499;46.484;13.832;2023-06-24T09:59:28;1.07;;;0.97;;
12469;SDS011;36499;46.484;13.832;2023-06-24T10:01:58;1.00;;;1.00;;
12469;SDS011;36499;46.484;13.832;2023-06-24T10:04:28;1.13;;;1.00;;
12469;SDS011;36499;46.484;13.832;2023-06-24T10:06:57;1.17;;;1.07;;
12469;SDS011;36499;46.484;13.832;2023-06-24T10:09:25;1.17;;;1.10;;
12469;SDS011;36499;46.484;13.832;2023-06-24T10:11:52;0.80;;;0.80;;
12469;SDS011;36499;46.484;13.832;2023-06-24T10:14:21;1.20;;;1.10;;
12469;SDS011;36499;46.484;13.832;2023-06-24T10:16:48;1.20;;;1.10;;
12469;SDS011;36499;46.484;13.832;2023-06-24T10:19:18;1.30;;;1.20;;
12469;SDS011;36499;46.484;13.832;2023-06-24T10:21:49;1.20;;;1.10;;
12469;SDS011;36499;46.484;13.832;2023-06-24T10:24:28;2.00;;;1.80;;
12469;SDS011;36499;46.484;13.832;2023-06-24T10:27:01;1.10;;;1.10;;
12469;SDS011;36499;46.484;13.832;2023-06-24T10:29:33;2.47;;;1.90;;
12469;SDS011;36499;46.484;13.832;2023-06-24T10:32:02;2.57;;;2.07;;
12469;SDS011;36499;46.484;13.832;2023-06-24T10:34:32;2.80;;;2.23;;
12469;SDS011;36499;46.484;13.832;2023-06-24T10:37:07;2.97;;;2.60;;
12469;SDS011;36499;46.484;13.832;2023-06-24T10:42:32;1.20;;;1.10;;
12469;SDS011;36499;46.484;13.832;2023-06-24T10:45:15;2.50;;;1.40;;
12469;SDS011;36499;46.484;13.832;2023-06-24T10:47:46;1.50;;;1.33;;
12469;SDS011;36499;46.484;13.832;2023-06-24T10:50:18;1.20;;;1.10;;
12469;SDS011;36499;46.484;13.832;2023-06-24T10:52:47;1.33;;;1.10;;
12469;SDS011;36499;46.484;13.832;2023-06-24T10:55:18;1.00;;;1.00;;
12469;SDS011;36499;46.484;13.832;2023-06-24T10:57:45;1.10;;;1.10;;
12469;SDS011;36499;46.484;13.832;2023-06-24T11:00:14;1.23;;;1.13;;
12469;SDS011;36499;46.484;13.832;2023-06-24T11:02:42;1.30;;;1.20;;
12469;SDS011;36499;46.484;13.832;2023-06-24T11:05:10;1.30;;;1.20;;
12469;SDS011;36499;46.484;13.832;2023-06-24T11:07:37;1.47;;;1.37;;
12469;SDS011;36499;46.484;13.832;2023-06-24T11:10:05;1.20;;;1.10;;
12469;SDS011;36499;46.484;13.832;2023-06-24T11:12:37;1.27;;;0.97;;
12469;SDS011;36499;46.484;13.832;2023-06-24T11:15:06;1.90;;;1.30;;
12469;SDS011;36499;46.484;13.832;2023-06-24T11:17:37;1.83;;;1.33;;
12469;SDS011;36499;46.484;13.832;2023-06-24T11:20:09;1.40;;;1.10;;
12469;SDS011;36499;46.484;13.832;2023-06-24T11:46:06;1.27;;;1.17;;
12469;SDS011;36499;46.484;13.832;2023-06-24T11:48:38;1.30;;;1.20;;
12469;SDS011;36499;46.484;13.832;2023-06-24T11:51:11;1.00;;;1.00;;
12469;SDS011;36499;46.484;13.832;2023-06-24T11:53:40;1.00;;;1.00;;
12469;SDS011;36499;46.484;13.832;2023-06-24T11:56:08;2.70;;;1.10;;
12469;SDS011;36499;46.484;13.832;2023-06-24T11:58:35;1.00;;;1.00;;
12469;SDS011;36499;46.484;13.832;2023-06-24T12:01:03;1.10;;;1.00;;
12469;SDS011;36499;46.484;13.832;2023-06-24T12:03:34;2.20;;;1.20;;
12469;SDS011;36499;46.484;13.832;2023-06-24T12:06:01;1.73;;;1.13;;
12469;SDS011;36499;46.484;13.832;2023-06-24T12:08:28;1.30;;;1.10;;
12469;SDS011;36499;46.484;13.832;2023-06-24T12:10:55;2.13;;;1.70;;
12469;SDS011;36499;46.484;13.832;2023-06-24T12:13:22;2.27;;;2.00;;
12469;SDS011;36499;46.484;13.832;2023-06-24T12:15:49;1.20;;;1.10;;
12469;SDS011;36499;46.484;13.832;2023-06-24T12:18:17;1.60;;;1.27;;
12469;SDS011;36499;46.484;13.832;2023-06-24T12:20:44;3.37;;;2.87;;
12469;SDS011;36499;46.484;13.832;2023-06-24T12:23:11;7.43;;;6.00;;
12469;SDS011;36499;46.484;13.832;2023-06-24T12:25:38;2.70;;;1.70;;
12469;SDS011;36499;46.484;13.832;2023-06-24T12:28:05;2.20;;;2.00;;
12469;SDS011;36499;46.484;13.832;2023-06-24T12:30:32;3.73;;;3.43;;
12469;SDS011;36499;46.484;13.832;2023-06-24T12:33:00;1.83;;;1.43;;
12469;SDS011;36499;46.484;13.832;2023-06-24T12:35:29;1.27;;;1.17;;
12469;SDS011;36499;46.484;13.832;2023-06-24T12:37:56;1.40;;;1.30;;
12469;SDS011;36499;46.484;13.832;2023-06-24T12:40:23;1.00;;;1.00;;
12469;SDS011;36499;46.484;13.832;2023-06-24T12:42:50;1.00;;;0.93;;
12469;SDS011;36499;46.484;13.832;2023-06-24T12:45:17;1.27;;;1.17;;
12469;SDS011;36499;46.484;13.832;2023-06-24T12:47:44;1.03;;;1.00;;
12469;SDS011;36499;46.484;13.832;2023-06-24T12:50:11;2.13;;;1.20;;
12469;SDS011;36499;46.484;13.832;2023-06-24T12:52:40;1.50;;;1.40;;
12469;SDS011;36499;46.484;13.832;2023-06-24T12:55:07;1.83;;;1.50;;
12469;SDS011;36499;46.484;13.832;2023-06-24T12:57:35;1.73;;;1.30;;
12469;SDS011;36499;46.484;13.832;2023-06-24T13:00:03;1.40;;;1.30;;
12469;SDS011;36499;46.484;13.832;2023-06-24T13:02:31;1.40;;;1.20;;
12469;SDS011;36499;46.484;13.832;2023-06-24T13:04:58;1.40;;;1.30;;
12469;SDS011;36499;46.484;13.832;2023-06-24T13:07:25;1.30;;;1.20;;
12469;SDS011;36499;46.484;13.832;2023-06-24T13:09:54;1.77;;;1.40;;
12469;SDS011;36499;46.484;13.832;2023-06-24T13:12:21;1.50;;;1.40;;
12469;SDS011;36499;46.484;13.832;2023-06-24T13:14:48;2.03;;;1.33;;
12469;SDS011;36499;46.484;13.832;2023-06-24T13:17:15;3.00;;;1.60;;
12469;SDS011;36499;46.484;13.832;2023-06-24T13:19:42;6.13;;;5.53;;
12469;SDS011;36499;46.484;13.832;2023-06-24T13:22:09;1.87;;;1.70;;
12469;SDS011;36499;46.484;13.832;2023-06-24T13:24:36;1.60;;;1.20;;
12469;SDS011;36499;46.484;13.832;2023-06-24T13:27:05;1.43;;;1.30;;
12469;SDS011;36499;46.484;13.832;2023-06-24T13:29:33;1.80;;;1.40;;
12469;SDS011;36499;46.484;13.832;2023-06-24T13:32:00;1.60;;;1.20;;
12469;SDS011;36499;46.484;13.832;2023-06-24T13:34:27;0.93;;;0.93;;
12469;SDS011;36499;46.484;13.832;2023-06-24T13:36:55;1.10;;;1.10;;
12469;SDS011;36499;46.484;13.832;2023-06-24T13:39:23;1.10;;;1.00;;
12469;SDS011;36499;46.484;13.832;2023-06-24T13:41:50;1.30;;;1.20;;
12469;SDS011;36499;46.484;13.832;2023-06-24T13:44:20;2.00;;;1.20;;
12469;SDS011;36499;46.484;13.832;2023-06-24T13:46:47;1.20;;;1.10;;
12469;SDS011;36499;46.484;13.832;2023-06-24T13:49:15;1.43;;;1.27;;
12469;SDS011;36499;46.484;13.832;2023-06-24T13:51:42;1.20;;;1.10;;
12469;SDS011;36499;46.484;13.832;2023-06-24T13:54:09;1.40;;;1.30;;
12469;SDS011;36499;46.484;13.832;2023-06-24T13:56:36;2.80;;;1.17;;
12469;SDS011;36499;46.484;13.832;2023-06-24T13:59:03;1.93;;;1.80;;
12469;SDS011;36499;46.484;13.832;2023-06-24T14:01:32;1.30;;;1.20;;
12469;SDS011;36499;46.484;13.832;2023-06-24T14:03:59;1.30;;;1.20;;
12469;SDS011;36499;46.484;13.832;2023-06-24T14:06:26;1.33;;;1.23;;
12469;SDS011;36499;46.484;13.832;2023-06-24T14:08:53;1.40;;;1.30;;
12469;SDS011;36499;46.484;13.832;2023-06-24T14:11:20;1.80;;;1.33;;
12469;SDS011;36499;46.484;13.832;2023-06-24T14:13:47;1.30;;;1.20;;
12469;SDS011;36499;46.484;13.832;2023-06-24T14:16:16;2.10;;;1.20;;
12469;SDS011;36499;46.484;13.832;2023-06-24T14:18:44;2.10;;;1.77;;
12469;SDS011;36499;46.484;13.832;2023-06-24T14:21:11;1.63;;;1.53;;
12469;SDS011;36499;46.484;13.832;2023-06-24T14:23:38;4.43;;;1.40;;
12469;SDS011;36499;46.484;13.832;2023-06-24T14:26:06;1.77;;;1.40;;
12469;SDS011;36499;46.484;13.832;2023-06-24T14:28:34;1.37;;;1.20;;
12469;SDS011;36499;46.484;13.832;2023-06-24T14:31:01;2.17;;;1.33;;
12469;SDS011;36499;46.484;13.832;2023-06-24T14:33:28;1.77;;;1.10;;
12469;SDS011;36499;46.484;13.832;2023-06-24T14:35:56;3.50;;;2.53;;
12469;SDS011;36499;46.484;13.832;2023-06-24T14:38:23;11.37;;;9.43;;
12469;SDS011;36499;46.484;13.832;2023-06-24T14:40:50;5.03;;;4.53;;
12469;SDS011;36499;46.484;13.832;2023-06-24T14:43:18;2.50;;;2.30;;
12469;SDS011;36499;46.484;13.832;2023-06-24T14:45:45;4.43;;;2.10;;
12469;SDS011;36499;46.484;13.832;2023-06-24T14:48:12;1.60;;;1.50;;
12469;SDS011;36499;46.484;13.832;2023-06-24T14:50:39;1.63;;;1.53;;
12469;SDS011;36499;46.484;13.832;2023-06-24T14:53:08;1.50;;;1.30;;
12469;SDS011;36499;46.484;13.832;2023-06-24T14:55:35;1.23;;;1.13;;
12469;SDS011;36499;46.484;13.832;2023-06-24T14:58:02;3.50;;;1.43;;
12469;SDS011;36499;46.484;13.832;2023-06-24T15:00:29;1.00;;;0.97;;
12469;SDS011;36499;46.484;13.832;2023-06-24T15:02:56;1.20;;;1.10;;
12469;SDS011;36499;46.484;13.832;2023-06-24T15:05:23;1.00;;;0.90;;
12469;SDS011;36499;46.484;13.832;2023-06-24T15:07:50;2.47;;;1.00;;